Time;durP1;ratioP1;P1;durP2;ratioP2;P2;SDS_P1;SDS_P2;PMS_P1;PMS_P2;Temp;Humidity;BMP_temperature;BMP_pressure;BME280_temperature;BME280_humidity;BME280_pressure;Samples;Min_cycle;Max_cycle;Signal;HPM_P1;HPM_P2
2022/04/25 00:01:40;;;;;;;;;;;10.40;78.30;;;9.36;nan;95731.59;4158809;33;19903;-83
2022/04/25 00:04:10;;;;;;;;;;;10.40;78.30;;;9.36;nan;95714.34;4204842;33;19915;-83
2022/04/25 00:06:39;;;;;;;;;;;10.40;78.30;;;9.37;nan;95705.06;4181009;33;19909;-82
2022/04/25 00:09:07;;;;;;;;;;;10.40;78.30;;;9.36;nan;95703.44;4158700;33;19979;-83
2022/04/25 00:11:36;;;;;;;;;;;10.40;78.30;;;9.35;nan;95710.81;4158822;33;19910;-83
2022/04/25 00:14:06;;;;;;;;;;;10.40;78.30;;;9.35;nan;95708.09;4181539;33;20163;-83
2022/04/25 00:16:35;;;;;;;;;;;10.40;78.20;;;9.35;nan;95701.81;4204476;33;19979;-83
2022/04/25 00:19:04;;;;;;;;;;;10.40;78.30;;;9.35;nan;95699.09;4209651;33;20009;-83
2022/04/25 00:21:34;;;;;;;;;;;10.40;78.20;;;9.34;nan;95689.25;4237730;33;19902;-83
2022/04/25 00:24:02;;;;;;;;;;;10.40;78.30;;;9.34;nan;95684.59;4261265;33;20074;-82
2022/04/25 00:26:31;;;;;;;;;;;10.40;78.20;;;9.35;nan;95671.78;4213552;33;19901;-83
2022/04/25 00:28:59;;;;;;;;;;;10.40;78.30;;;9.35;nan;95677.22;4237658;33;20157;-83
2022/04/25 00:31:28;;;;;;;;;;;10.40;78.30;;;9.34;nan;95670.94;4262226;33;19902;-83
2022/04/25 00:33:57;;;;;;;;;;;10.40;78.20;;;9.34;nan;95667.41;4261131;33;19917;-83
2022/04/25 00:36:25;;;;;;;;;;;10.40;78.30;;;9.35;nan;95675.31;4212930;33;19910;-82
2022/04/25 00:38:55;;;;;;;;;;;10.40;78.30;;;9.35;nan;95677.22;4237579;33;20155;-82
2022/04/25 00:41:24;;;;;;;;;;;10.40;78.30;;;9.35;nan;95685.44;4262376;33;19902;-82
2022/04/25 00:43:56;;;;;;;;;;;10.40;78.30;;;9.35;nan;95685.44;4261611;33;20140;-83
2022/04/25 00:46:25;;;;;;;;;;;10.40;78.40;;;9.35;nan;95682.69;4213529;33;19909;-82
2022/04/25 00:48:54;;;;;;;;;;;10.40;78.40;;;9.34;nan;95689.25;4214048;33;19901;-82
2022/04/25 00:51:23;;;;;;;;;;;10.40;78.30;;;9.34;nan;95684.59;4237432;33;20107;-82
2022/04/25 00:53:51;;;;;;;;;;;10.40;78.40;;;9.35;nan;95679.97;4232888;33;19902;-82
2022/04/25 00:56:22;;;;;;;;;;;10.40;78.30;;;9.35;nan;95686.22;4185707;33;20159;-83
2022/04/25 00:58:50;;;;;;;;;;;10.40;78.40;;;9.34;nan;95684.59;4186098;33;20233;-82
2022/04/25 01:01:19;;;;;;;;;;;10.40;78.40;;;9.36;nan;95684.31;4185783;33;19989;-82
2022/04/25 01:03:49;;;;;;;;;;;10.40;78.30;;;9.35;nan;95685.44;4208756;33;19909;-82
2022/04/25 01:06:18;;;;;;;;;;;10.40;78.40;;;9.35;nan;95677.22;4232124;33;19978;-82
2022/04/25 01:08:46;;;;;;;;;;;10.40;78.40;;;9.35;nan;95675.31;4232661;33;20129;-82
2022/04/25 01:11:15;;;;;;;;;;;10.40;78.30;;;9.36;nan;95684.31;4186017;33;20138;-82
2022/04/25 01:13:45;;;;;;;;;;;10.40;78.40;;;9.36;nan;95670.66;4185837;33;20221;-82
2022/04/25 01:16:14;;;;;;;;;;;10.40;78.30;;;9.36;nan;95665.19;4232142;33;19937;-83
2022/04/25 01:18:42;;;;;;;;;;;10.40;78.30;;;9.36;nan;95657.00;4232687;33;19910;-83
2022/04/25 01:21:11;;;;;;;;;;;10.40;78.30;;;9.36;nan;95654.25;4232777;33;20044;-83
2022/04/25 01:29:14;;;;;;;;;;;10.40;78.40;;;9.36;nan;95676.09;4236771;33;23003;-82
2022/04/25 01:31:43;;;;;;;;;;;10.40;78.30;;;9.36;nan;95689.78;4240946;33;20112;-82
2022/04/25 01:34:12;;;;;;;;;;;10.40;78.40;;;9.36;nan;95687.03;4232577;33;19910;-82
2022/04/25 01:36:40;;;;;;;;;;;10.40;78.30;;;9.35;nan;95675.31;4208676;33;19929;-82
2022/04/25 01:39:10;;;;;;;;;;;10.40;78.40;;;9.36;nan;95666.03;4232420;33;19903;-82
2022/04/25 01:41:40;;;;;;;;;;;10.40;78.30;;;9.36;nan;95674.22;4249875;33;20124;-82
2022/04/25 01:44:08;;;;;;;;;;;10.40;78.40;;;9.37;nan;95685.94;4260561;33;20229;-82
2022/04/25 01:46:38;;;;;;;;;;;10.40;78.30;;;9.36;nan;95701.53;4213991;33;19903;-82
2022/04/25 01:49:07;;;;;;;;;;;10.40;78.40;;;9.36;nan;95704.25;4264053;33;19909;-82
2022/04/25 01:51:36;;;;;;;;;;;10.40;78.40;;;9.36;nan;95687.88;4263219;33;20309;-82
2022/04/25 01:54:04;;;;;;;;;;;10.40;78.40;;;9.37;nan;95661.34;4215627;33;20070;-82
2022/04/25 01:56:34;;;;;;;;;;;10.40;78.30;;;9.37;nan;95639.50;4262496;33;19902;-82
2022/04/25 01:59:03;;;;;;;;;;;10.40;78.30;;;9.36;nan;95630.50;4238625;33;20018;-82
2022/04/25 02:01:31;;;;;;;;;;;10.40;78.30;;;9.37;nan;95612.19;4261985;33;19907;-81
2022/04/25 02:04:00;;;;;;;;;;;10.40;78.40;;;9.36;nan;95605.09;4237874;33;19938;-82
2022/04/25 02:06:29;;;;;;;;;;;10.40;78.30;;;9.35;nan;95593.34;4261395;33;20055;-83
2022/04/25 02:08:58;;;;;;;;;;;10.40;78.40;;;9.37;nan;95563.00;4261873;33;20140;-82
2022/04/25 02:11:26;;;;;;;;;;;10.40;78.70;;;9.36;nan;95558.66;4262080;33;19909;-83
2022/04/25 02:13:56;;;;;;;;;;;10.40;79.10;;;9.38;nan;95552.94;4262072;33;19998;-82
2022/04/25 02:16:26;;;;;;;;;;;10.40;79.20;;;9.38;nan;95520.16;4238271;33;19910;-82
2022/04/25 02:18:55;;;;;;;;;;;10.40;79.30;;;9.37;nan;95524.78;4262832;33;19902;-83
2022/04/25 02:21:23;;;;;;;;;;;10.40;79.40;;;9.38;nan;95526.41;4238979;33;19951;-83
2022/04/25 02:23:52;;;;;;;;;;;10.40;79.60;;;9.37;nan;95516.56;4215248;33;19909;-83
2022/04/25 02:26:20;;;;;;;;;;;10.40;79.60;;;9.38;nan;95517.41;4213938;33;20008;-83
2022/04/25 02:28:49;;;;;;;;;;;10.40;79.60;;;9.38;nan;95515.47;4214900;33;20117;-83
2022/04/25 02:31:19;;;;;;;;;;;10.40;79.80;;;9.36;nan;95513.03;4263028;33;20069;-83
2022/04/25 02:33:48;;;;;;;;;;;10.40;79.70;;;9.36;nan;95506.75;4263083;33;19917;-83
2022/04/25 02:36:16;;;;;;;;;;;10.40;80.00;;;9.37;nan;95497.47;4262362;33;19902;-83
2022/04/25 02:38:45;;;;;;;;;;;10.40;80.00;;;9.37;nan;95492.00;4215681;33;19901;-82
2022/04/25 02:41:14;;;;;;;;;;;10.40;80.00;;;9.35;nan;95484.09;4239094;33;20080;-83
2022/04/25 02:43:44;;;;;;;;;;;10.40;80.00;;;9.36;nan;95482.16;4263866;33;20045;-82
2022/04/25 02:46:14;;;;;;;;;;;10.40;80.10;;;9.35;nan;95477.81;4262195;33;19917;-83
2022/04/25 02:48:44;;;;;;;;;;;10.40;80.40;;;9.35;nan;95483.28;4262871;33;19902;-83
2022/04/25 02:51:14;;;;;;;;;;;10.40;80.30;;;9.35;nan;95477.81;4215510;33;20114;-82
2022/04/25 02:53:43;;;;;;;;;;;10.40;80.40;;;9.35;nan;95486.81;4215479;33;19934;-83
2022/04/25 02:56:11;;;;;;;;;;;10.40;80.40;;;9.37;nan;95483.81;4214998;33;19924;-83
2022/04/25 02:58:40;;;;;;;;;;;10.40;80.30;;;9.36;nan;95477.53;4214800;33;19902;-82
2022/04/25 03:01:09;;;;;;;;;;;10.40;80.40;;;9.36;nan;95466.59;4263502;33;20026;-82
2022/04/25 03:03:38;;;;;;;;;;;10.40;80.60;;;9.36;nan;95474.81;4262771;33;20151;-82
2022/04/25 03:06:09;;;;;;;;;;;10.40;80.70;;;9.36;nan;95471.25;4262007;33;19902;-82
2022/04/25 03:08:37;;;;;;;;;;;10.40;80.80;;;9.36;nan;95463.03;4238756;33;20134;-82
2022/04/25 03:11:08;;;;;;;;;;;10.40;80.90;;;9.36;nan;95460.31;4187218;33;20140;-82
2022/04/25 03:13:37;;;;;;;;;;;10.40;80.90;;;9.36;nan;95458.41;4234106;33;19929;-82
2022/04/25 03:16:06;;;;;;;;;;;10.40;80.90;;;9.35;nan;95461.44;4186467;33;20031;-83
2022/04/25 03:18:35;;;;;;;;;;;10.40;80.90;;;9.35;nan;95461.44;4187019;33;20226;-82
2022/04/25 03:21:05;;;;;;;;;;;10.40;80.70;;;9.35;nan;95466.91;4187358;33;19902;-82
2022/04/25 03:23:37;;;;;;;;;;;10.40;80.70;;;9.34;nan;95460.59;4233837;33;20231;-82
2022/04/25 03:26:07;;;;;;;;;;;10.40;80.80;;;9.36;nan;95465.78;4209733;33;19911;-83
2022/04/25 03:28:35;;;;;;;;;;;10.40;80.90;;;9.35;nan;95439.59;4233793;33;19912;-83
2022/04/25 03:31:07;;;;;;;;;;;10.40;80.60;;;9.36;nan;95446.66;4233687;33;19936;-82
2022/04/25 03:33:36;;;;;;;;;;;10.40;80.80;;;9.36;nan;95446.66;4233713;33;19910;-83
2022/04/25 03:36:05;;;;;;;;;;;10.40;81.10;;;9.35;nan;95450.50;4233294;33;19909;-83
2022/04/25 03:38:35;;;;;;;;;;;10.40;81.00;;;9.34;nan;95452.41;4233392;33;19903;-83
2022/04/25 03:41:04;;;;;;;;;;;10.40;80.90;;;9.35;nan;95445.84;4210032;33;19902;-83
2022/04/25 03:43:33;;;;;;;;;;;10.40;80.70;;;9.36;nan;95454.84;4233713;33;20052;-82
2022/04/25 03:46:02;;;;;;;;;;;10.40;80.90;;;9.35;nan;95456.78;4233123;33;19909;-83
2022/04/25 03:48:30;;;;;;;;;;;10.40;80.80;;;9.36;nan;95454.84;4210140;33;19925;-83
2022/04/25 03:50:59;;;;;;;;;;;10.40;80.90;;;9.36;nan;95452.94;4233446;33;19967;-83
2022/04/25 03:53:27;;;;;;;;;;;10.40;80.70;;;9.35;nan;95448.59;4233521;33;19902;-83
2022/04/25 03:58:43;;;;;;;;;;;10.40;80.60;;;9.37;nan;95442.81;4186720;33;20276;-83
2022/04/25 04:01:12;;;;;;;;;;;10.40;80.60;;;9.37;nan;95445.56;4186891;33;19909;-82
2022/04/25 04:03:41;;;;;;;;;;;10.40;80.80;;;9.37;nan;95442.81;4233122;33;20133;-82
2022/04/25 04:06:12;;;;;;;;;;;10.40;81.50;;;9.38;nan;95449.91;4185779;33;20156;-83
2022/04/25 04:08:41;;;;;;;;;;;10.40;80.50;;;9.38;nan;95441.72;4245592;33;19909;-83
2022/04/25 04:11:11;;;;;;;;;;;10.40;80.30;;;9.39;nan;95435.16;4262022;33;19909;-82
2022/04/25 04:13:40;;;;;;;;;;;10.40;80.10;;;9.39;nan;95446.09;4250396;33;20249;-82
2022/04/25 04:16:08;;;;;;;;;;;10.40;80.00;;;9.40;nan;95444.19;4233789;33;20133;-82
2022/04/25 04:18:41;;;;;;;;;;;10.40;80.20;;;9.41;nan;95434.91;4186631;33;19902;-82
2022/04/25 04:21:11;;;;;;;;;;;10.50;80.20;;;9.41;nan;95435.72;4186167;33;20241;-82
2022/04/25 04:23:39;;;;;;;;;;;10.40;80.10;;;9.42;nan;95434.63;4185973;33;20222;-82
2022/04/25 04:26:08;;;;;;;;;;;10.50;79.90;;;9.42;nan;95431.88;4232722;33;20124;-82
2022/04/25 04:28:38;;;;;;;;;;;10.50;79.80;;;9.42;nan;95423.69;4209596;33;19902;-82
2022/04/25 04:31:06;;;;;;;;;;;10.40;79.90;;;9.44;nan;95426.13;4233271;33;19903;-82
2022/04/25 04:33:35;;;;;;;;;;;10.50;79.80;;;9.44;nan;95426.97;4209585;33;20144;-82
2022/04/25 04:36:19;;;;;;;;;;;10.50;79.80;;;9.44;nan;95426.97;4232644;33;20083;-82
2022/04/25 04:38:47;;;;;;;;;;;10.50;79.70;;;9.46;nan;95423.94;4234058;33;19962;-82
2022/04/25 04:41:16;;;;;;;;;;;10.50;79.70;;;9.44;nan;95426.97;4233961;33;19909;-82
2022/04/25 04:43:46;;;;;;;;;;;10.50;79.50;;;9.46;nan;95424.75;4232968;33;19902;-82
2022/04/25 04:46:14;;;;;;;;;;;10.50;79.40;;;9.48;nan;95432.66;4232442;33;19918;-82
2022/04/25 04:48:43;;;;;;;;;;;10.50;79.50;;;9.48;nan;95430.78;4232678;33;20149;-82
2022/04/25 04:51:11;;;;;;;;;;;10.50;79.40;;;9.49;nan;95429.63;4232488;33;19903;-81
2022/04/25 04:53:40;;;;;;;;;;;10.50;79.30;;;9.51;nan;95424.72;4235824;33;20169;-82
2022/04/25 04:56:09;;;;;;;;;;;10.50;79.10;;;9.52;nan;95429.09;4260561;33;20217;-83
2022/04/25 04:58:37;;;;;;;;;;;10.60;79.10;;;9.51;nan;95424.72;4261461;33;19908;-82
2022/04/25 05:01:07;;;;;;;;;;;10.60;80.00;;;9.52;nan;95426.34;4262331;33;19908;-82
2022/04/25 05:03:36;;;;;;;;;;;10.60;79.20;;;9.54;nan;95430.72;4261564;33;19986;-82
2022/04/25 05:06:05;;;;;;;;;;;10.60;79.40;;;9.55;nan;95422.25;4260818;33;19902;-82
2022/04/25 05:08:34;;;;;;;;;;;10.60;79.30;;;9.56;nan;95423.84;4237703;33;20080;-82
2022/04/25 05:11:04;;;;;;;;;;;10.60;79.30;;;9.58;nan;95420.88;4261377;33;20071;-82
2022/04/25 05:13:32;;;;;;;;;;;10.60;79.20;;;9.59;nan;95412.38;4262400;33;19901;-83
2022/04/25 05:16:01;;;;;;;;;;;10.60;79.00;;;9.60;nan;95413.19;4186893;33;20069;-83
2022/04/25 05:18:32;;;;;;;;;;;10.60;79.00;;;9.62;nan;95425.47;4232813;33;19916;-82
2022/04/25 05:21:01;;;;;;;;;;;10.70;79.20;;;9.66;nan;95422.97;4233141;33;19932;-82
2022/04/25 05:23:29;;;;;;;;;;;10.70;79.30;;;9.72;nan;95421.03;4211612;33;19902;-82
2022/04/25 05:25:58;;;;;;;;;;;10.70;78.80;;;9.79;nan;95427.00;4211136;33;20007;-83
2022/04/25 05:28:29;;;;;;;;;;;10.80;78.50;;;9.86;nan;95424.75;4235050;33;19902;-82
2022/04/25 05:30:58;;;;;;;;;;;10.90;78.50;;;9.93;nan;95428.00;4234319;33;19909;-83
2022/04/25 05:33:26;;;;;;;;;;;10.90;78.00;;;9.96;nan;95424.66;4186964;33;20111;-83
2022/04/25 05:35:56;;;;;;;;;;;11.00;77.70;;;10.00;nan;95422.19;4233971;33;20076;-83
2022/04/25 05:38:25;;;;;;;;;;;11.00;77.50;;;10.07;nan;95424.59;4234532;33;20086;-82
2022/04/25 05:40:54;;;;;;;;;;;11.10;77.40;;;10.12;nan;95419.91;4187139;33;20222;-82
2022/04/25 05:43:22;;;;;;;;;;;11.10;77.10;;;10.17;nan;95419.03;4187926;33;20211;-82
2022/04/25 05:45:51;;;;;;;;;;;11.20;76.80;;;10.22;nan;95420.91;4230021;33;19909;-82
2022/04/25 05:53:53;;;;;;;;;;;11.30;76.10;;;10.33;nan;95413.44;4263118;33;19958;-83
2022/04/25 05:56:21;;;;;;;;;;;11.40;76.00;;;10.37;nan;95404.34;4261601;33;19917;-83
2022/04/25 05:58:50;;;;;;;;;;;11.40;75.90;;;10.41;nan;95410.88;4262165;33;19908;-82
2022/04/25 06:01:18;;;;;;;;;;;11.50;76.00;;;10.44;nan;95407.59;4262051;33;19902;-82
2022/04/25 06:03:47;;;;;;;;;;;11.50;75.80;;;10.47;nan;95413.59;4238190;33;19971;-83
2022/04/25 06:06:20;;;;;;;;;;;11.50;75.70;;;10.50;nan;95407.53;4261459;33;20331;-82
2022/04/25 06:08:49;;;;;;;;;;;11.60;75.60;;;10.54;nan;95408.56;4261685;33;19901;-82
2022/04/25 06:11:18;;;;;;;;;;;11.60;75.60;;;10.55;nan;95404.72;4238141;33;19924;-83
2022/04/25 06:13:47;;;;;;;;;;;11.60;75.40;;;10.58;nan;95404.16;4262819;33;19901;-83
2022/04/25 06:16:15;;;;;;;;;;;11.60;75.40;;;10.59;nan;95406.59;4213981;33;20126;-82
2022/04/25 06:18:44;;;;;;;;;;;11.70;75.30;;;10.55;nan;95402.81;4214489;33;19902;-82
2022/04/25 06:21:12;;;;;;;;;;;11.60;75.10;;;10.48;nan;95399.59;4214695;33;19902;-83
2022/04/25 06:23:42;;;;;;;;;;;11.60;75.20;;;10.43;nan;95391.47;4262281;33;20113;-83
2022/04/25 06:26:11;;;;;;;;;;;11.50;75.40;;;10.39;nan;95390.41;4261633;33;19975;-82
2022/04/25 06:28:41;;;;;;;;;;;11.50;75.70;;;10.38;nan;95397.81;4215012;33;19901;-82
2022/04/25 06:31:11;;;;;;;;;;;11.50;75.90;;;10.41;nan;95396.41;4248493;33;20114;-82
2022/04/25 06:33:40;;;;;;;;;;;11.50;76.20;;;10.45;nan;95392.00;4233059;33;19902;-82
2022/04/25 06:36:09;;;;;;;;;;;11.50;76.20;;;10.49;nan;95394.97;4186717;33;19902;-82
2022/04/25 06:38:37;;;;;;;;;;;11.50;76.20;;;10.53;nan;95393.25;4235157;33;20206;-82
2022/04/25 06:41:08;;;;;;;;;;;11.60;76.10;;;10.58;nan;95399.53;4210677;33;20131;-82
2022/04/25 06:43:37;;;;;;;;;;;11.60;76.00;;;10.62;nan;95388.78;4234037;33;20104;-82
2022/04/25 06:46:05;;;;;;;;;;;11.60;75.80;;;10.65;nan;95381.91;4233670;33;19902;-82
2022/04/25 06:48:35;;;;;;;;;;;11.70;75.90;;;10.69;nan;95382.97;4233933;33;20010;-82
2022/04/25 06:51:03;;;;;;;;;;;11.70;75.70;;;10.72;nan;95383.19;4233950;33;19906;-82
2022/04/25 06:53:32;;;;;;;;;;;11.70;75.70;;;10.76;nan;95375.22;4234027;33;20326;-82
2022/04/25 06:56:00;;;;;;;;;;;11.80;75.60;;;10.78;nan;95358.50;4186902;33;19902;-82
2022/04/25 06:58:30;;;;;;;;;;;11.80;75.50;;;10.81;nan;95369.69;4233605;33;20136;-82
2022/04/25 07:00:59;;;;;;;;;;;11.80;75.40;;;10.84;nan;95371.00;4186429;33;19909;-82
2022/04/25 07:03:27;;;;;;;;;;;11.80;75.30;;;10.87;nan;95362.22;4187155;33;20090;-82
2022/04/25 07:05:56;;;;;;;;;;;11.90;75.30;;;10.89;nan;95354.53;4234455;33;19909;-82
2022/04/25 07:08:25;;;;;;;;;;;11.90;75.30;;;10.93;nan;95361.03;4233377;33;20031;-82
2022/04/25 07:10:53;;;;;;;;;;;11.90;75.10;;;10.95;nan;95356.09;4233731;33;19909;-82
2022/04/25 07:13:22;;;;;;;;;;;11.90;75.10;;;10.97;nan;95353.88;4210484;33;20164;-82
2022/04/25 07:15:55;;;;;;;;;;;11.90;75.00;;;10.98;nan;95358.25;4233639;33;20132;-83
2022/04/25 07:18:24;;;;;;;;;;;12.00;74.90;;;11.00;nan;95360.66;4186717;33;20306;-82
2022/04/25 07:20:52;;;;;;;;;;;12.00;74.90;;;11.01;nan;95346.72;4209906;33;19909;-83
2022/04/25 07:29:07;;;;;;;;;;;12.00;74.80;;;11.04;nan;95346.09;4099033;34;19927;-82
2022/04/25 07:31:37;;;;;;;;;;;12.00;74.80;;;11.07;nan;95349.34;4076934;34;20142;-82
2022/04/25 07:34:06;;;;;;;;;;;12.10;74.80;;;11.07;nan;95349.34;4149034;33;19902;-82
2022/04/25 07:36:36;;;;;;;;;;;12.00;74.60;;;11.01;nan;95341.22;4231356;33;20206;-82
2022/04/25 07:39:04;;;;;;;;;;;12.00;74.70;;;11.00;nan;95339.59;4231409;33;20130;-82
2022/04/25 07:41:33;;;;;;;;;;;12.00;74.80;;;10.96;nan;95346.75;4231717;33;20139;-82
2022/04/25 07:44:07;;;;;;;;;;;12.00;74.80;;;10.90;nan;95334.25;4209353;33;20217;-82
2022/04/25 07:46:40;;;;;;;;;;;11.90;74.80;;;10.84;nan;95325.28;4185166;33;19902;-82
2022/04/25 07:49:09;;;;;;;;;;;11.90;75.00;;;10.83;nan;95322.84;4233342;33;20100;-82
2022/04/25 07:51:37;;;;;;;;;;;11.90;75.20;;;10.79;nan;95310.84;4232452;33;19902;-82
2022/04/25 07:54:06;;;;;;;;;;;11.80;75.10;;;10.76;nan;95314.19;4185817;33;20052;-82
2022/04/25 07:56:35;;;;;;;;;;;11.80;76.20;;;10.72;nan;95322.16;4231644;33;20060;-83
2022/04/25 07:59:03;;;;;;;;;;;11.80;75.50;;;10.67;nan;95331.25;4185688;33;19909;-82
2022/04/25 08:01:32;;;;;;;;;;;11.70;75.60;;;10.62;nan;95328.59;4232193;33;19903;-82
2022/04/25 08:04:03;;;;;;;;;;;11.70;75.90;;;10.58;nan;95316.59;4232209;33;20245;-82
2022/04/25 08:06:31;;;;;;;;;;;11.60;76.00;;;10.55;nan;95317.16;4231776;33;19902;-82
2022/04/25 08:09:02;;;;;;;;;;;11.60;76.20;;;10.53;nan;95313.91;4232072;33;19902;-82
2022/04/25 08:11:31;;;;;;;;;;;11.60;76.20;;;10.51;nan;95307.94;4231635;33;19981;-83
2022/04/25 08:19:34;;;;;;;;;;;11.50;76.80;;;10.52;nan;95265.78;4208938;33;20061;-82
2022/04/25 08:22:06;;;;;;;;;;;11.50;76.70;;;10.57;nan;95271.16;4231798;33;20171;-82
2022/04/25 08:24:36;;;;;;;;;;;11.60;76.60;;;10.59;nan;95263.47;4206255;33;865134;-82
2022/04/25 08:27:05;;;;;;;;;;;11.60;76.40;;;10.58;nan;95262.69;4209003;33;20075;-82
2022/04/25 08:29:34;;;;;;;;;;;11.60;76.40;;;10.55;nan;95270.63;4232788;33;19902;-82
2022/04/25 08:32:03;;;;;;;;;;;11.60;76.30;;;10.53;nan;95259.16;4233730;33;19909;-82
2022/04/25 08:34:32;;;;;;;;;;;11.50;76.50;;;10.50;nan;95254.31;4209412;33;19902;-82
2022/04/25 08:37:03;;;;;;;;;;;11.50;76.70;;;10.47;nan;95260.34;4185367;33;20053;-82
2022/04/25 08:39:31;;;;;;;;;;;11.50;76.70;;;10.43;nan;95251.91;4185861;33;19925;-82
2022/04/25 08:42:01;;;;;;;;;;;11.50;76.80;;;10.41;nan;95262.34;4232524;33;20079;-82
2022/04/25 08:44:29;;;;;;;;;;;11.50;77.10;;;10.38;nan;95263.75;4259910;33;19993;-81
2022/04/25 08:46:58;;;;;;;;;;;11.40;77.30;;;10.36;nan;95268.66;4237096;33;20144;-82
2022/04/25 08:49:27;;;;;;;;;;;11.40;77.40;;;10.33;nan;95288.38;4214068;33;19909;-82
2022/04/25 08:51:58;;;;;;;;;;;11.40;77.70;;;10.31;nan;95296.06;4214073;33;19909;-82
2022/04/25 08:54:30;;;;;;;;;;;11.30;78.00;;;10.30;nan;95305.38;4261244;33;20290;-82
2022/04/25 08:56:59;;;;;;;;;;;11.30;78.20;;;10.29;nan;95334.66;4262151;33;19908;-82
2022/04/25 08:59:27;;;;;;;;;;;11.30;78.30;;;10.28;nan;95365.03;4263967;33;20089;-82
2022/04/25 09:01:56;;;;;;;;;;;11.30;78.40;;;10.28;nan;95378.72;4263678;33;19909;-82
2022/04/25 09:04:25;;;;;;;;;;;11.30;78.30;;;10.27;nan;95385.28;4264802;33;19916;-82
2022/04/25 09:06:55;;;;;;;;;;;11.30;78.40;;;10.26;nan;95391.88;4239497;33;19991;-82
2022/04/25 09:09:30;;;;;;;;;;;11.30;78.40;;;10.25;nan;95387.50;4239594;33;20129;-82
2022/04/25 09:12:12;;;;;;;;;;;11.30;78.40;;;10.25;nan;95390.25;4239770;33;20049;-82
2022/04/25 09:14:42;;;;;;;;;;;11.30;78.50;;;10.26;nan;95367.25;4238781;33;19902;-81
2022/04/25 09:17:11;;;;;;;;;;;11.30;78.20;;;10.27;nan;95357.94;4233493;33;19925;-82
2022/04/25 09:19:40;;;;;;;;;;;11.30;78.10;;;10.29;nan;95358.47;4256717;33;19909;-82
2022/04/25 09:22:09;;;;;;;;;;;11.30;78.10;;;10.35;nan;95334.59;4215670;33;20027;-84
2022/04/25 09:24:45;;;;;;;;;;;11.30;77.80;;;10.38;nan;95315.72;4215654;33;19984;-84
2022/04/25 09:27:17;;;;;;;;;;;11.40;77.80;;;10.42;nan;95305.81;4215469;33;20001;-84
2022/04/25 09:29:48;;;;;;;;;;;11.40;77.80;;;10.46;nan;95297.03;4263806;33;19909;-84
2022/04/25 09:32:18;;;;;;;;;;;11.50;77.80;;;10.50;nan;95292.59;4263682;33;20120;-84
2022/04/25 09:35:03;;;;;;;;;;;11.50;77.80;;;10.51;nan;95295.03;4239415;33;19901;-84
2022/04/25 09:37:45;;;;;;;;;;;11.50;77.40;;;10.54;nan;95294.47;4263163;33;19909;-84
2022/04/25 09:40:19;;;;;;;;;;;11.60;77.40;;;10.56;nan;95296.91;4263356;33;20217;-85
2022/04/25 09:42:48;;;;;;;;;;;11.60;77.00;;;10.57;nan;95287.59;4263267;33;20115;-82
2022/04/25 09:45:17;;;;;;;;;;;11.60;77.10;;;10.59;nan;95290.84;4216006;33;20017;-82
2022/04/25 09:47:46;;;;;;;;;;;11.60;77.00;;;10.61;nan;95283.16;4238998;33;20158;-82
2022/04/25 09:50:16;;;;;;;;;;;11.70;77.10;;;10.62;nan;95271.09;4215790;33;19909;-82
2022/04/25 09:52:54;;;;;;;;;;;11.70;77.10;;;10.63;nan;95278.22;4239515;33;20104;-82
2022/04/25 09:55:26;;;;;;;;;;;11.70;77.00;;;10.64;nan;95282.59;4263254;33;20150;-82
2022/04/25 09:57:54;;;;;;;;;;;11.70;76.90;;;10.66;nan;95285.81;4215486;33;19902;-82
2022/04/25 10:00:33;;;;;;;;;;;11.70;76.90;;;10.67;nan;95297.59;4239364;33;20072;-81
2022/04/25 10:03:02;;;;;;;;;;;11.70;77.00;;;10.67;nan;95301.13;4263131;33;19902;-83
2022/04/25 10:05:41;;;;;;;;;;;11.70;76.90;;;10.68;nan;95301.97;4239187;33;19909;-82
2022/04/25 10:08:12;;;;;;;;;;;11.70;76.80;;;10.67;nan;95314.81;4262475;33;20121;-82
2022/04/25 10:10:46;;;;;;;;;;;11.70;76.80;;;10.64;nan;95337.31;4262806;33;19902;-82
2022/04/25 10:13:15;;;;;;;;;;;11.70;77.00;;;10.62;nan;95361.44;4264044;33;20404;-82
2022/04/25 10:15:45;;;;;;;;;;;11.70;77.20;;;10.60;nan;95388.28;4263137;33;20352;-82
2022/04/25 10:18:15;;;;;;;;;;;11.60;77.20;;;10.57;nan;95421.69;4262520;33;19901;-82
2022/04/25 10:20:46;;;;;;;;;;;11.60;77.50;;;10.53;nan;95423.34;4262993;33;19971;-82
2022/04/25 10:23:17;;;;;;;;;;;11.60;77.50;;;10.52;nan;95438.97;4215568;33;19901;-82
2022/04/25 10:25:54;;;;;;;;;;;11.60;77.60;;;10.50;nan;95471.28;4239127;33;20102;-82
2022/04/25 10:28:29;;;;;;;;;;;11.60;77.70;;;10.46;nan;95483.09;4262679;33;20240;-82
2022/04/25 10:31:03;;;;;;;;;;;11.50;77.80;;;10.44;nan;95459.56;4239156;33;19902;-82
2022/04/25 10:33:50;;;;;;;;;;;11.50;77.80;;;10.42;nan;95439.88;4263152;33;19901;-82
2022/04/25 10:36:44;;;;;;;;;;;11.50;77.90;;;10.40;nan;95422.94;4263551;33;20049;-82
2022/04/25 10:39:14;;;;;;;;;;;11.40;77.80;;;10.38;nan;95430.66;4262893;33;20395;-82
2022/04/25 10:44:56;;;;;;;;;;;11.40;78.00;;;10.34;nan;95473.31;4127199;34;20294;-82
2022/04/25 10:47:25;;;;;;;;;;;11.40;78.00;;;10.32;nan;95450.91;4223062;33;19909;-83
2022/04/25 10:50:09;;;;;;;;;;;11.40;78.10;;;10.31;nan;95421.91;4241599;33;20108;-82
2022/04/25 10:53:00;;;;;;;;;;;11.30;78.10;;;10.28;nan;95468.97;4262710;33;19902;-82
2022/04/25 10:55:45;;;;;;;;;;;11.30;78.20;;;10.26;nan;95499.38;4224901;33;19998;-82
2022/04/25 10:58:17;;;;;;;;;;;11.30;78.30;;;10.25;nan;95500.47;4233491;33;20381;-82
2022/04/25 11:00:56;;;;;;;;;;;11.30;78.30;;;10.24;nan;95490.63;4187262;33;19909;-81
2022/04/25 11:03:29;;;;;;;;;;;11.30;78.40;;;10.26;nan;95490.38;4210471;33;19910;-81
2022/04/25 11:06:00;;;;;;;;;;;11.30;78.40;;;10.25;nan;95477.78;4233428;33;19994;-82
2022/04/25 11:08:39;;;;;;;;;;;11.30;78.40;;;10.26;nan;95479.41;4186816;33;20158;-82
2022/04/25 11:11:16;;;;;;;;;;;11.30;78.30;;;10.25;nan;95495.00;4180163;33;20388;-82
2022/04/25 11:14:17;;;;;;;;;;;11.30;78.30;;;10.26;nan;95498.56;4210240;33;20418;-82
2022/04/25 11:17:12;;;;;;;;;;;11.30;78.30;;;10.28;nan;95496.34;4233209;33;19909;-82
2022/04/25 11:19:51;;;;;;;;;;;11.30;78.20;;;10.29;nan;95485.13;4186634;33;20309;-82
2022/04/25 11:22:34;;;;;;;;;;;11.30;78.10;;;10.31;nan;95487.56;4181872;33;20338;-82
2022/04/25 11:25:39;;;;;;;;;;;11.30;78.10;;;10.33;nan;95490.84;4159119;33;20008;-82
2022/04/25 11:28:08;;;;;;;;;;;11.40;78.00;;;10.34;nan;95481.53;4159083;33;20164;-82
2022/04/25 11:30:39;;;;;;;;;;;11.40;77.90;;;10.36;nan;95473.84;4205430;33;19911;-82
2022/04/25 11:33:08;;;;;;;;;;;11.40;77.80;;;10.36;nan;95473.84;4205293;33;20241;-82
2022/04/25 11:35:37;;;;;;;;;;;11.40;77.80;;;10.38;nan;95482.63;4159043;33;19903;-82
2022/04/25 11:38:06;;;;;;;;;;;11.40;77.80;;;10.39;nan;95494.38;4181783;33;20130;-82
2022/04/25 11:40:35;;;;;;;;;;;11.40;77.70;;;10.39;nan;95500.66;4205296;33;20136;-83
2022/04/25 11:43:06;;;;;;;;;;;11.40;77.60;;;10.39;nan;95491.63;4159238;33;19999;-81
2022/04/25 11:45:34;;;;;;;;;;;11.40;77.60;;;10.38;nan;95496.31;4206286;33;19902;-83
2022/04/25 11:48:12;;;;;;;;;;;11.40;77.60;;;10.38;nan;95499.03;4158732;33;20022;-82
2022/04/25 11:50:41;;;;;;;;;;;11.40;77.50;;;10.39;nan;95489.69;4182183;33;19979;-82
2022/04/25 11:53:10;;;;;;;;;;;11.40;77.60;;;10.39;nan;95488.91;4159259;33;19910;-83
2022/04/25 11:55:39;;;;;;;;;;;11.40;77.50;;;10.39;nan;95495.19;4159035;33;19910;-83
2022/04/25 11:58:07;;;;;;;;;;;11.40;77.50;;;10.38;nan;95487.28;4158725;33;20134;-83
2022/04/25 12:00:36;;;;;;;;;;;11.40;77.50;;;10.38;nan;95493.56;4205200;33;19910;-83
2022/04/25 12:03:06;;;;;;;;;;;11.40;77.60;;;10.37;nan;95491.91;4205087;33;19909;-83
2022/04/25 12:05:35;;;;;;;;;;;11.40;77.50;;;10.38;nan;95500.94;4205383;33;19903;-82
2022/04/25 12:16:30;;;;;;;;;;;11.40;77.70;;;10.36;nan;95525.00;4178003;33;19902;-83
2022/04/25 12:19:01;;;;;;;;;;;11.40;77.70;;;10.36;nan;95525.84;4262630;33;20184;-83
2022/04/25 12:21:30;;;;;;;;;;;11.40;77.70;;;10.35;nan;95526.94;4213279;33;20102;-83
2022/04/25 12:23:59;;;;;;;;;;;11.40;77.70;;;10.36;nan;95527.75;4214386;33;19909;-83
2022/04/25 12:26:29;;;;;;;;;;;11.40;77.80;;;10.35;nan;95524.19;4273916;28;19901;-89
2022/04/25 12:28:59;;;;;;;;;;;11.40;77.80;;;10.36;nan;95520.38;4243165;33;20128;-89